Time;durP1;ratioP1;P1;durP2;ratioP2;P2;SDS_P1;SDS_P2;PMS_P1;PMS_P2;Temp;Humidity;BMP_temperature;BMP_pressure;BME280_temperature;BME280_humidity;BME280_pressure;Samples;Min_cycle;Max_cycle;Signal;HPM_P1;HPM_P2
2024/03/07 00:02:21;;;;;;;106.35;45.80;;;5.50;99.50;;;;;;5093052;28;20388;-73
2024/03/07 00:04:46;;;;;;;117.23;47.33;;;5.30;99.90;;;;;;5092541;28;20477;-71
2024/03/07 00:07:12;;;;;;;108.43;46.20;;;5.50;99.90;;;;;;5092871;28;20410;-74
2024/03/07 00:09:38;;;;;;;104.93;46.13;;;5.80;99.90;;;;;;5093105;28;20390;-72
2024/03/07 00:12:05;;;;;;;104.93;46.40;;;5.80;97.30;;;;;;5092710;28;20385;-72
2024/03/07 00:14:31;;;;;;;110.93;47.08;;;5.80;96.20;;;;;;5093046;28;20381;-72
2024/03/07 00:16:59;;;;;;;105.70;46.80;;;5.70;98.00;;;;;;5092408;28;20390;-72
2024/03/07 00:19:26;;;;;;;104.57;46.88;;;5.70;97.60;;;;;;5093446;28;20470;-71
2024/03/07 00:21:58;;;;;;;109.80;47.03;;;5.60;99.00;;;;;;5093144;28;20374;-71
2024/03/07 00:24:24;;;;;;;110.80;47.10;;;5.40;98.80;;;;;;5092887;28;20375;-72
2024/03/07 00:26:51;;;;;;;109.47;47.15;;;5.30;99.90;;;;;;5093067;28;20401;-72
2024/03/07 00:29:20;;;;;;;109.90;48.40;;;5.30;99.90;;;;;;5058924;28;20378;-72
2024/03/07 00:31:46;;;;;;;98.57;44.25;;;5.40;99.90;;;;;;5092182;28;20380;-71
2024/03/07 00:34:14;;;;;;;109.47;45.92;;;5.20;99.90;;;;;;5091962;28;20477;-71
2024/03/07 00:36:40;;;;;;;112.28;45.83;;;5.10;99.90;;;;;;5091353;28;20410;-71
2024/03/07 00:39:08;;;;;;;118.65;49.05;;;4.90;99.90;;;;;;5091971;28;20423;-72
2024/03/07 00:41:34;;;;;;;108.50;46.15;;;4.90;99.90;;;;;;5091917;28;20368;-71
2024/03/07 00:43:59;;;;;;;113.90;47.90;;;4.70;99.90;;;;;;5074391;28;20397;-72
2024/03/07 00:46:25;;;;;;;117.73;46.37;;;4.70;99.90;;;;;;5073627;28;20454;-72
2024/03/07 00:48:50;;;;;;;117.50;46.80;;;4.90;99.90;;;;;;5091776;28;20382;-72
2024/03/07 00:51:16;;;;;;;115.27;48.37;;;4.80;99.90;;;;;;5092148;28;20413;-71
2024/03/07 00:53:41;;;;;;;107.85;45.58;;;4.80;99.90;;;;;;5092043;28;20389;-73
2024/03/07 00:56:07;;;;;;;111.18;46.30;;;4.60;99.90;;;;;;5092701;28;20866;-72
2024/03/07 00:58:32;;;;;;;112.68;46.85;;;4.50;99.90;;;;;;5092472;28;20409;-72
2024/03/07 01:00:58;;;;;;;117.10;49.78;;;4.40;99.90;;;;;;5092877;28;20405;-72
2024/03/07 01:03:24;;;;;;;121.07;48.83;;;4.50;99.90;;;;;;5092880;28;20413;-72
2024/03/07 01:05:49;;;;;;;113.07;46.03;;;4.40;99.90;;;;;;5092751;28;20898;-72
2024/03/07 01:08:15;;;;;;;130.98;50.28;;;4.40;99.90;;;;;;5092260;28;20388;-71
2024/03/07 01:10:41;;;;;;;127.15;49.45;;;4.30;99.90;;;;;;5092417;28;20744;-72
2024/03/07 01:13:08;;;;;;;121.00;48.95;;;4.30;99.90;;;;;;5092574;28;20722;-72
2024/03/07 01:15:34;;;;;;;127.07;49.97;;;4.40;99.90;;;;;;5091948;28;20942;-71
2024/03/07 01:18:00;;;;;;;138.90;52.17;;;4.30;99.90;;;;;;5091434;28;20401;-74
2024/03/07 01:20:25;;;;;;;130.30;49.67;;;4.60;99.90;;;;;;5091888;28;20715;-71
2024/03/07 01:22:51;;;;;;;122.28;49.80;;;4.70;99.90;;;;;;5091946;28;20381;-72
2024/03/07 01:25:18;;;;;;;112.68;47.90;;;4.80;99.90;;;;;;5091555;28;20382;-72
2024/03/07 01:27:44;;;;;;;116.70;46.90;;;4.80;99.90;;;;;;5091265;28;20412;-73
2024/03/07 01:30:10;;;;;;;111.50;46.70;;;4.70;99.90;;;;;;5091635;28;20370;-72
2024/03/07 01:32:35;;;;;;;117.65;46.65;;;4.70;99.90;;;;;;5091782;28;20849;-73
2024/03/07 01:35:01;;;;;;;125.18;49.60;;;4.60;99.90;;;;;;5091663;28;20386;-71
2024/03/07 01:37:28;;;;;;;112.60;47.88;;;4.80;99.90;;;;;;5092742;28;20424;-71
2024/03/07 01:39:54;;;;;;;112.97;45.90;;;5.00;99.90;;;;;;5092069;28;20457;-72
2024/03/07 01:42:20;;;;;;;109.18;46.55;;;4.80;99.90;;;;;;5092528;28;20748;-71
2024/03/07 01:44:45;;;;;;;108.22;43.92;;;4.80;99.90;;;;;;5091923;28;20387;-72
2024/03/07 01:47:12;;;;;;;115.97;47.22;;;4.70;99.90;;;;;;5091664;28;20904;-71
2024/03/07 01:49:38;;;;;;;117.68;47.60;;;4.70;99.90;;;;;;5096091;28;20377;-72
2024/03/07 01:52:05;;;;;;;113.38;47.05;;;4.70;99.90;;;;;;5096328;28;20731;-72
2024/03/07 01:54:31;;;;;;;111.30;46.78;;;4.80;99.90;;;;;;5097034;28;20389;-72
2024/03/07 01:56:58;;;;;;;117.93;47.08;;;5.00;99.90;;;;;;5061380;28;20925;-73
2024/03/07 01:59:24;;;;;;;114.65;47.00;;;4.80;99.90;;;;;;5097626;28;20439;-72
2024/03/07 02:01:50;;;;;;;126.07;48.67;;;4.70;99.90;;;;;;5097522;28;20431;-72
2024/03/07 02:04:16;;;;;;;119.15;48.40;;;4.70;99.90;;;;;;5096963;28;20400;-72
2024/03/07 02:06:42;;;;;;;111.00;47.70;;;4.70;99.90;;;;;;5076972;28;20501;-72
2024/03/07 02:09:07;;;;;;;118.50;49.80;;;4.60;99.90;;;;;;5076551;28;20385;-71
2024/03/07 02:11:33;;;;;;;117.72;48.03;;;4.70;99.90;;;;;;5094793;28;20860;-72
2024/03/07 02:13:59;;;;;;;124.57;50.85;;;4.80;99.90;;;;;;5077074;28;20380;-73
2024/03/07 02:16:25;;;;;;;112.88;47.53;;;5.10;99.90;;;;;;5109551;22;20425;-75
2024/03/07 02:18:50;;;;;;;105.82;45.72;;;5.20;99.80;;;;;;5094674;28;20389;-74
2024/03/07 02:21:16;;;;;;;110.03;45.60;;;5.30;97.60;;;;;;5094775;28;20374;-76
2024/03/07 02:23:42;;;;;;;113.85;47.83;;;5.30;97.10;;;;;;5094734;28;20408;-75
2024/03/07 02:26:08;;;;;;;114.73;47.53;;;5.40;96.40;;;;;;5097112;28;20401;-76
2024/03/07 02:28:36;;;;;;;121.40;48.43;;;5.30;96.60;;;;;;5114966;28;20380;-75
2024/03/07 02:31:02;;;;;;;110.15;47.17;;;5.30;96.30;;;;;;5114593;28;20379;-75
2024/03/07 02:33:28;;;;;;;107.35;46.83;;;5.30;96.30;;;;;;5114916;28;20376;-75
2024/03/07 02:35:53;;;;;;;115.67;50.10;;;5.30;96.60;;;;;;5114948;28;20392;-74
2024/03/07 02:38:19;;;;;;;108.93;46.53;;;5.20;96.20;;;;;;5097489;28;20383;-75
2024/03/07 02:40:46;;;;;;;106.17;47.80;;;5.10;96.60;;;;;;5118684;28;20399;-74
2024/03/07 02:43:12;;;;;;;105.18;47.05;;;5.00;97.00;;;;;;5119819;28;20384;-75
2024/03/07 02:45:37;;;;;;;104.43;45.63;;;4.90;98.00;;;;;;5117912;28;20408;-75
2024/03/07 02:48:05;;;;;;;95.40;44.03;;;4.90;97.70;;;;;;5117144;28;20745;-76
2024/03/07 02:50:30;;;;;;;93.87;43.70;;;4.80;97.10;;;;;;5114636;28;20868;-74
2024/03/07 02:52:56;;;;;;;94.80;43.97;;;4.70;97.00;;;;;;5116470;28;20396;-76
2024/03/07 02:55:21;;;;;;;89.33;42.67;;;4.70;97.70;;;;;;5097846;28;20414;-74
2024/03/07 02:57:47;;;;;;;94.37;44.27;;;4.60;98.40;;;;;;5118931;28;20380;-75
2024/03/07 03:00:19;;;;;;;86.97;40.28;;;4.60;99.50;;;;;;5119102;28;20380;-77
2024/03/07 03:02:48;;;;;;;83.72;41.45;;;4.50;99.90;;;;;;5114174;28;20747;-75
2024/03/07 03:05:18;;;;;;;79.83;40.50;;;4.60;99.90;;;;;;5114126;28;20468;-75
2024/03/07 03:07:52;;;;;;;84.03;40.53;;;4.70;99.50;;;;;;5113426;28;20371;-75
2024/03/07 03:10:25;;;;;;;85.53;41.72;;;4.70;98.30;;;;;;5114039;28;20434;-76
2024/03/07 03:12:53;;;;;;;77.28;40.25;;;4.70;97.80;;;;;;5113423;28;20379;-76
2024/03/07 03:15:20;;;;;;;84.18;40.75;;;4.70;97.70;;;;;;5113607;28;20764;-76
2024/03/07 03:17:47;;;;;;;81.43;39.80;;;4.60;96.90;;;;;;5116178;28;20392;-76
2024/03/07 03:20:25;;;;;;;74.28;38.47;;;4.70;96.50;;;;;;5115272;28;20388;-75
2024/03/07 03:22:54;;;;;;;75.45;38.22;;;4.70;95.70;;;;;;5095416;28;20380;-75
2024/03/07 03:25:23;;;;;;;80.00;38.85;;;4.70;95.50;;;;;;5114036;28;20372;-75
2024/03/07 03:27:49;;;;;;;81.50;40.70;;;4.60;95.80;;;;;;5113906;28;20380;-75
2024/03/07 03:30:18;;;;;;;84.72;40.35;;;4.60;96.00;;;;;;5114363;28;20850;-75
2024/03/07 03:32:47;;;;;;;84.80;40.97;;;4.60;95.80;;;;;;5114430;28;20381;-76
2024/03/07 03:35:13;;;;;;;84.57;40.50;;;4.60;96.30;;;;;;5113627;28;20368;-76
2024/03/07 03:37:42;;;;;;;82.75;41.80;;;4.60;96.70;;;;;;5112672;28;20380;-75
2024/03/07 03:40:09;;;;;;;83.18;39.70;;;4.60;96.80;;;;;;5113524;28;20734;-75
2024/03/07 03:42:36;;;;;;;81.57;38.35;;;4.50;97.40;;;;;;5094714;28;20752;-75
2024/03/07 03:45:06;;;;;;;82.30;40.07;;;4.50;97.90;;;;;;5113116;28;20459;-76
2024/03/07 03:47:38;;;;;;;85.35;40.10;;;4.50;98.30;;;;;;5093933;28;20406;-75
2024/03/07 03:50:08;;;;;;;86.80;39.90;;;4.50;98.60;;;;;;5112787;28;20387;-76
2024/03/07 03:52:37;;;;;;;79.32;39.13;;;4.50;98.40;;;;;;5113435;28;20448;-76
2024/03/07 03:55:05;;;;;;;80.97;40.15;;;4.50;98.00;;;;;;5113843;28;20861;-75
2024/03/07 03:57:31;;;;;;;84.93;41.38;;;4.50;97.50;;;;;;5112752;28;20472;-75
2024/03/07 03:59:57;;;;;;;89.18;41.00;;;4.50;98.00;;;;;;5100518;28;20420;-75
2024/03/07 04:02:23;;;;;;;82.70;40.08;;;4.50;98.10;;;;;;5124178;28;20391;-75
2024/03/07 04:04:50;;;;;;;88.03;40.70;;;4.50;97.90;;;;;;5113709;28;20388;-75
2024/03/07 04:07:18;;;;;;;86.50;41.53;;;4.50;99.00;;;;;;5117609;28;20408;-75
2024/03/07 04:09:44;;;;;;;90.53;41.10;;;4.50;98.60;;;;;;5123240;28;20443;-76
2024/03/07 04:12:11;;;;;;;87.05;41.22;;;4.40;99.90;;;;;;5113273;28;20384;-76
2024/03/07 04:14:43;;;;;;;90.18;40.90;;;4.50;99.40;;;;;;5112602;28;20380;-75
2024/03/07 04:17:11;;;;;;;86.35;41.97;;;4.50;98.60;;;;;;5116953;28;20433;-77
2024/03/07 04:19:39;;;;;;;92.60;42.58;;;4.40;98.00;;;;;;5114224;28;20395;-74
2024/03/07 04:22:05;;;;;;;91.37;43.57;;;4.40;99.10;;;;;;5113064;28;20475;-77
2024/03/07 04:24:34;;;;;;;89.70;41.30;;;4.40;99.30;;;;;;5112775;28;20866;-77
2024/03/07 04:27:04;;;;;;;94.05;44.22;;;4.40;99.40;;;;;;5113273;28;20487;-76
2024/03/07 04:29:33;;;;;;;93.07;42.90;;;4.40;99.60;;;;;;5115656;28;20396;-77
2024/03/07 04:32:01;;;;;;;102.78;46.25;;;4.40;99.90;;;;;;5114070;28;20387;-75
2024/03/07 04:34:27;;;;;;;95.00;43.63;;;4.40;99.90;;;;;;5113524;28;20767;-76
2024/03/07 04:36:53;;;;;;;95.90;42.33;;;4.40;99.90;;;;;;5115210;28;20395;-76
2024/03/07 04:39:32;;;;;;;98.75;44.40;;;4.30;99.90;;;;;;5117415;28;20380;-76
2024/03/07 04:42:00;;;;;;;92.95;43.90;;;4.40;99.90;;;;;;5087952;28;20395;-75
2024/03/07 04:44:25;;;;;;;100.78;46.13;;;4.40;99.90;;;;;;5124530;28;20403;-75
2024/03/07 04:46:55;;;;;;;103.90;45.95;;;4.40;99.90;;;;;;5124477;28;20408;-76
2024/03/07 04:49:23;;;;;;;101.88;46.00;;;4.40;99.90;;;;;;5120436;28;20441;-77
2024/03/07 04:51:49;;;;;;;103.30;45.95;;;4.40;99.90;;;;;;5121899;28;20463;-76
2024/03/07 04:54:14;;;;;;;106.43;46.07;;;4.40;99.90;;;;;;5115967;28;20414;-75
2024/03/07 04:56:40;;;;;;;94.83;45.00;;;4.40;99.90;;;;;;5113888;28;20486;-77
2024/03/07 04:59:06;;;;;;;100.30;46.20;;;4.40;99.90;;;;;;5115799;28;20862;-75
2024/03/07 05:01:31;;;;;;;100.63;45.50;;;4.50;99.30;;;;;;5114090;28;20444;-76
2024/03/07 05:03:57;;;;;;;98.93;46.87;;;4.50;99.10;;;;;;5118253;28;20428;-77
2024/03/07 05:06:22;;;;;;;101.33;46.83;;;4.40;98.10;;;;;;5114002;28;20541;-77
2024/03/07 05:08:48;;;;;;;105.47;47.13;;;4.30;99.90;;;;;;5112127;28;20799;-75
2024/03/07 05:11:13;;;;;;;107.70;47.60;;;4.10;99.90;;;;;;5112925;28;20457;-77
2024/03/07 05:13:42;;;;;;;107.60;45.50;;;3.90;99.90;;;;;;5112875;28;20457;-76
2024/03/07 05:16:07;;;;;;;113.35;48.35;;;3.70;99.90;;;;;;5112815;28;20374;-76
2024/03/07 05:18:33;;;;;;;103.20;47.17;;;3.70;99.90;;;;;;5114843;28;20411;-75
2024/03/07 05:21:29;;;;;;;113.90;46.97;;;3.60;99.90;;;;;;5112288;28;20476;-75
2024/03/07 05:23:44;;;;;;;109.28;48.42;;;3.60;99.90;;;;;;5112158;28;20392;-75
2024/03/07 05:26:10;;;;;;;113.70;48.93;;;3.50;99.90;;;;;;5112891;28;20396;-77
2024/03/07 05:28:36;;;;;;;113.05;50.53;;;3.50;99.90;;;;;;5112445;28;20427;-77
2024/03/07 05:31:03;;;;;;;119.27;50.83;;;3.50;99.90;;;;;;5112084;28;20377;-76
2024/03/07 05:33:29;;;;;;;110.90;47.97;;;3.70;99.90;;;;;;5114843;28;20834;-75
2024/03/07 05:36:13;;;;;;;115.80;49.30;;;3.70;99.90;;;;;;5113880;28;20377;-75
2024/03/07 05:38:39;;;;;;;105.82;47.08;;;3.80;99.90;;;;;;5113583;28;20380;-76
2024/03/07 05:41:04;;;;;;;107.90;49.50;;;4.00;99.90;;;;;;5089829;28;20383;-75
2024/03/07 05:43:30;;;;;;;105.63;47.13;;;4.00;99.90;;;;;;5098390;28;20397;-75
2024/03/07 05:45:56;;;;;;;105.80;47.85;;;3.90;99.90;;;;;;5107779;28;20396;-77
2024/03/07 05:48:22;;;;;;;102.63;46.03;;;3.90;99.90;;;;;;5101228;28;20386;-77
2024/03/07 05:50:47;;;;;;;102.97;46.03;;;3.60;99.90;;;;;;5113882;28;20790;-75
2024/03/07 05:53:13;;;;;;;112.00;48.83;;;3.80;99.90;;;;;;5114063;28;20878;-73
2024/03/07 05:55:38;;;;;;;108.30;47.77;;;3.90;99.90;;;;;;5106617;28;20388;-72
2024/03/07 05:58:05;;;;;;;103.70;46.77;;;4.00;99.90;;;;;;5113818;28;20380;-73
2024/03/07 06:00:34;;;;;;;103.38;47.13;;;4.10;99.90;;;;;;5118445;28;20414;-73
2024/03/07 06:03:00;;;;;;;110.00;48.43;;;4.00;99.90;;;;;;5094925;28;20393;-72
2024/03/07 06:05:26;;;;;;;100.33;46.03;;;3.80;99.90;;;;;;5091491;28;20385;-73
2024/03/07 06:07:52;;;;;;;122.55;50.17;;;3.70;99.90;;;;;;5106410;28;20384;-73
2024/03/07 06:10:18;;;;;;;104.95;45.28;;;3.80;99.90;;;;;;5111026;28;20468;-74
2024/03/07 06:12:45;;;;;;;104.93;48.92;;;3.80;99.90;;;;;;5092534;28;20427;-71
2024/03/07 06:15:11;;;;;;;104.95;46.95;;;4.00;99.90;;;;;;5103191;28;20445;-72
2024/03/07 06:17:37;;;;;;;100.30;45.87;;;4.10;99.60;;;;;;5110866;28;20396;-72
2024/03/07 06:20:03;;;;;;;101.73;46.53;;;4.30;96.70;;;;;;5092349;28;20481;-73
2024/03/07 06:22:28;;;;;;;98.80;45.10;;;4.30;94.00;;;;;;5105392;28;20406;-74
2024/03/07 06:24:54;;;;;;;98.27;45.20;;;4.30;92.70;;;;;;5104720;28;20400;-77
2024/03/07 06:27:37;;;;;;;99.82;45.97;;;4.30;91.60;;;;;;5101889;28;20929;-76
2024/03/07 06:30:03;;;;;;;104.65;48.13;;;4.30;91.50;;;;;;5104840;28;20392;-78
2024/03/07 06:32:28;;;;;;;102.15;45.67;;;4.20;92.50;;;;;;5091877;28;20453;-76
2024/03/07 06:34:54;;;;;;;100.80;46.27;;;4.20;93.60;;;;;;5096020;28;21038;-79
2024/03/07 06:37:19;;;;;;;105.80;48.43;;;4.20;93.20;;;;;;5106895;28;20437;-77
2024/03/07 06:39:45;;;;;;;109.40;48.83;;;4.20;92.30;;;;;;5108382;28;20390;-77
2024/03/07 06:42:12;;;;;;;98.17;46.73;;;4.20;93.10;;;;;;5098698;28;20382;-77
2024/03/07 06:44:37;;;;;;;103.95;47.97;;;4.20;92.50;;;;;;5097739;28;20794;-77
2024/03/07 06:47:05;;;;;;;98.15;47.33;;;4.20;92.90;;;;;;5099675;28;20406;-76
2024/03/07 06:49:31;;;;;;;97.40;47.13;;;4.20;92.80;;;;;;5096750;28;20390;-78
2024/03/07 06:51:57;;;;;;;96.38;45.80;;;4.30;91.70;;;;;;5097345;28;20520;-78
2024/03/07 06:54:22;;;;;;;106.78;48.40;;;4.40;90.30;;;;;;5099100;28;20409;-76
2024/03/07 06:56:48;;;;;;;97.60;47.05;;;4.40;89.90;;;;;;5099375;28;20382;-75
2024/03/07 06:59:14;;;;;;;100.50;45.70;;;4.40;88.40;;;;;;5098082;28;20473;-77
2024/03/07 07:01:42;;;;;;;99.72;47.80;;;4.40;88.80;;;;;;5099171;28;20394;-77
2024/03/07 07:04:08;;;;;;;101.15;46.15;;;4.50;90.20;;;;;;5097435;28;20382;-76
2024/03/07 07:06:34;;;;;;;96.20;45.72;;;4.50;88.40;;;;;;5097465;28;20396;-78
2024/03/07 07:09:02;;;;;;;96.67;47.20;;;4.60;87.00;;;;;;5097698;28;20394;-77
2024/03/07 07:11:28;;;;;;;93.78;45.83;;;4.60;88.30;;;;;;5098182;28;20377;-77
2024/03/07 07:13:53;;;;;;;95.90;46.77;;;4.70;86.30;;;;;;5098346;28;20856;-76
2024/03/07 07:16:19;;;;;;;87.60;43.10;;;4.80;87.00;;;;;;5099137;28;20512;-77
2024/03/07 07:18:45;;;;;;;93.53;43.92;;;4.80;86.40;;;;;;5098942;28;20420;-77
2024/03/07 07:21:10;;;;;;;92.10;43.10;;;4.90;85.90;;;;;;5097018;28;20382;-76
2024/03/07 07:23:36;;;;;;;87.90;42.08;;;5.00;83.70;;;;;;5101716;28;20484;-76
2024/03/07 07:26:02;;;;;;;84.25;40.97;;;5.10;83.50;;;;;;5112647;28;20435;-75
2024/03/07 07:28:27;;;;;;;81.38;41.42;;;5.10;83.00;;;;;;5109872;28;20450;-76
2024/03/07 07:30:53;;;;;;;81.10;38.13;;;5.10;85.50;;;;;;5103342;28;20378;-76
2024/03/07 07:33:19;;;;;;;79.37;39.13;;;5.10;85.50;;;;;;5099242;28;20378;-77
2024/03/07 07:35:45;;;;;;;79.07;38.00;;;5.40;81.10;;;;;;5099697;28;20386;-76
2024/03/07 07:38:12;;;;;;;69.45;35.88;;;5.50;75.80;;;;;;5098215;28;20389;-75
2024/03/07 07:40:38;;;;;;;72.32;36.33;;;5.70;72.70;;;;;;5095058;28;20439;-76
2024/03/07 07:43:04;;;;;;;69.38;35.75;;;5.80;70.10;;;;;;5098233;28;20461;-77
2024/03/07 07:45:32;;;;;;;63.53;34.05;;;5.90;68.50;;;;;;5097486;28;20402;-78
2024/03/07 07:47:58;;;;;;;67.78;34.28;;;6.00;68.30;;;;;;5111045;28;20409;-74
2024/03/07 07:50:24;;;;;;;62.28;33.33;;;6.10;66.00;;;;;;5117104;28;20372;-77
2024/03/07 07:52:56;;;;;;;63.33;32.13;;;6.20;64.80;;;;;;5115519;28;20390;-75
2024/03/07 07:55:23;;;;;;;57.42;30.73;;;6.20;62.50;;;;;;5110551;28;20372;-77
2024/03/07 07:57:54;;;;;;;59.23;30.00;;;6.20;62.70;;;;;;5103584;28;20883;-76
2024/03/07 08:00:22;;;;;;;62.97;32.33;;;6.30;61.90;;;;;;5106137;28;20395;-77
2024/03/07 08:02:54;;;;;;;62.33;32.03;;;6.40;60.50;;;;;;5097363;28;20379;-78
2024/03/07 08:05:22;;;;;;;55.70;29.90;;;6.60;59.00;;;;;;5097982;28;20380;-75
2024/03/07 08:07:52;;;;;;;55.60;29.33;;;6.60;59.60;;;;;;5097005;28;20392;-76
2024/03/07 08:10:24;;;;;;;58.42;31.45;;;6.70;58.70;;;;;;5095522;28;20841;-76
2024/03/07 08:12:50;;;;;;;54.10;29.35;;;6.70;57.40;;;;;;5096741;28;20412;-77
2024/03/07 08:15:16;;;;;;;54.00;28.40;;;6.80;56.40;;;;;;5097071;28;20389;-76
2024/03/07 08:17:46;;;;;;;55.93;28.87;;;6.90;53.00;;;;;;5096919;28;20413;-77
2024/03/07 08:20:14;;;;;;;48.38;26.33;;;7.00;54.00;;;;;;5098888;28;20395;-76
2024/03/07 08:22:41;;;;;;;50.85;27.20;;;7.00;51.00;;;;;;5020310;28;20419;-78
2024/03/07 08:25:14;;;;;;;49.47;26.92;;;7.20;49.80;;;;;;5036172;28;20418;-77
2024/03/07 08:27:42;;;;;;;47.65;26.17;;;7.30;47.80;;;;;;5039453;28;20400;-77
2024/03/07 08:30:12;;;;;;;50.45;27.50;;;7.30;48.80;;;;;;5039936;28;20395;-75
2024/03/07 08:32:39;;;;;;;49.85;26.95;;;7.30;50.10;;;;;;5036486;28;20390;-76
2024/03/07 08:35:12;;;;;;;48.70;27.08;;;7.30;48.60;;;;;;5036563;28;20391;-76
2024/03/07 08:37:43;;;;;;;50.15;27.40;;;7.30;46.10;;;;;;5031384;28;20477;-77
2024/03/07 08:40:10;;;;;;;47.08;26.98;;;7.40;47.10;;;;;;5037014;28;20395;-77
2024/03/07 08:42:41;;;;;;;51.70;27.00;;;7.50;47.20;;;;;;5038888;28;20429;-75
2024/03/07 08:45:10;;;;;;;49.67;26.10;;;7.60;46.80;;;;;;5033799;28;20395;-77
2024/03/07 08:47:37;;;;;;;49.53;26.50;;;7.70;44.90;;;;;;5033362;28;20817;-78
2024/03/07 08:50:08;;;;;;;50.35;26.15;;;7.70;45.60;;;;;;5033220;28;20415;-78
2024/03/07 08:52:38;;;;;;;42.92;23.20;;;7.70;45.50;;;;;;5033719;28;20409;-77
2024/03/07 08:55:04;;;;;;;46.35;25.65;;;7.80;40.60;;;;;;5032993;28;20390;-77
2024/03/07 08:57:30;;;;;;;45.70;24.70;;;7.80;41.90;;;;;;5034136;28;20391;-76
2024/03/07 08:59:56;;;;;;;48.88;25.40;;;7.90;41.20;;;;;;5033304;28;20449;-77
2024/03/07 09:02:22;;;;;;;46.30;25.48;;;8.10;40.10;;;;;;5033343;28;20394;-77
2024/03/07 09:04:48;;;;;;;42.88;22.58;;;8.20;39.40;;;;;;5034314;28;20392;-78
2024/03/07 09:07:14;;;;;;;45.13;23.80;;;8.40;37.30;;;;;;5034051;28;20421;-77
2024/03/07 09:09:43;;;;;;;44.13;23.38;;;8.40;37.30;;;;;;5034782;28;20868;-77
2024/03/07 09:12:09;;;;;;;46.83;23.80;;;8.40;36.80;;;;;;5035199;28;20451;-76
2024/03/07 09:14:35;;;;;;;45.93;23.93;;;8.50;36.00;;;;;;5046376;28;20471;-73
2024/03/07 09:17:01;;;;;;;41.15;22.02;;;8.50;36.70;;;;;;5049893;28;20395;-74
2024/03/07 09:19:28;;;;;;;42.57;22.93;;;8.70;35.60;;;;;;5045122;28;20529;-73
2024/03/07 09:21:54;;;;;;;42.10;22.40;;;8.80;34.20;;;;;;5038253;28;20390;-77
2024/03/07 09:24:23;;;;;;;55.70;22.13;;;8.90;33.40;;;;;;5032322;28;20414;-76
2024/03/07 09:26:50;;;;;;;39.77;22.13;;;8.80;34.10;;;;;;5032915;28;20449;-74
2024/03/07 09:29:17;;;;;;;37.90;21.15;;;8.90;34.10;;;;;;5034548;28;20375;-77
2024/03/07 09:31:43;;;;;;;43.63;22.23;;;9.10;32.20;;;;;;5033777;28;20410;-75
2024/03/07 09:34:08;;;;;;;38.60;20.60;;;9.20;32.20;;;;;;5037104;28;20383;-76
2024/03/07 09:36:34;;;;;;;40.83;20.73;;;9.30;31.60;;;;;;5034374;28;20396;-77
2024/03/07 09:39:00;;;;;;;39.20;21.20;;;9.40;30.80;;;;;;5032752;28;20815;-77
2024/03/07 09:41:26;;;;;;;41.78;21.42;;;9.30;31.90;;;;;;5032240;28;20391;-76
2024/03/07 09:43:55;;;;;;;42.00;19.77;;;9.30;31.80;;;;;;5033462;28;20612;-77
2024/03/07 09:46:22;;;;;;;41.40;20.92;;;9.30;31.60;;;;;;5033066;28;20937;-76
2024/03/07 09:48:50;;;;;;;36.13;19.33;;;9.40;31.10;;;;;;5032356;28;20474;-75
2024/03/07 09:51:18;;;;;;;35.97;18.90;;;9.60;30.00;;;;;;5034789;28;20382;-76
2024/03/07 09:53:46;;;;;;;32.55;19.55;;;9.50;30.00;;;;;;5033279;28;20383;-78
2024/03/07 09:56:13;;;;;;;38.47;19.92;;;9.50;30.50;;;;;;5039833;28;20387;-76
2024/03/07 09:58:41;;;;;;;39.23;21.20;;;9.70;30.90;;;;;;5035639;28;20478;-74
2024/03/07 10:01:09;;;;;;;38.87;20.47;;;10.00;29.70;;;;;;5037498;28;20761;-76
2024/03/07 10:03:36;;;;;;;37.20;19.85;;;10.10;29.40;;;;;;5039669;28;20399;-75
2024/03/07 10:06:02;;;;;;;39.78;19.52;;;10.30;29.00;;;;;;5050962;28;20920;-75
2024/03/07 10:08:29;;;;;;;41.60;20.08;;;10.30;28.50;;;;;;5046568;28;20383;-77
2024/03/07 10:10:56;;;;;;;33.50;19.50;;;10.40;28.30;;;;;;5035704;28;20721;-77
2024/03/07 10:13:22;;;;;;;38.40;19.60;;;10.60;27.30;;;;;;5035934;28;20698;-76
2024/03/07 10:15:48;;;;;;;51.85;20.17;;;10.60;28.50;;;;;;5037600;28;20466;-76
2024/03/07 10:18:14;;;;;;;37.53;20.25;;;10.60;27.30;;;;;;5034943;28;20391;-76
2024/03/07 10:20:42;;;;;;;33.60;17.67;;;10.60;27.50;;;;;;5038444;28;20810;-76
2024/03/07 10:23:08;;;;;;;35.57;17.47;;;10.60;26.30;;;;;;5039116;28;20382;-76
2024/03/07 10:25:33;;;;;;;34.92;18.25;;;10.70;27.90;;;;;;5040119;28;20390;-75
2024/03/07 10:28:00;;;;;;;41.00;19.50;;;10.90;26.80;;;;;;5043190;28;20747;-77
2024/03/07 10:30:27;;;;;;;34.13;18.27;;;10.80;27.20;;;;;;5037935;28;20951;-77
2024/03/07 10:32:57;;;;;;;34.70;19.10;;;10.90;26.60;;;;;;5036678;28;20402;-77
2024/03/07 10:35:26;;;;;;;36.13;19.10;;;11.20;24.80;;;;;;5036870;28;20809;-78
2024/03/07 10:37:56;;;;;;;35.38;18.58;;;11.40;25.90;;;;;;5038011;28;20375;-75
2024/03/07 10:40:26;;;;;;;34.07;18.53;;;11.50;25.00;;;;;;5043056;28;20387;-76
2024/03/07 10:42:56;;;;;;;31.85;18.02;;;11.30;25.30;;;;;;5045534;28;20756;-76
2024/03/07 10:45:22;;;;;;;34.60;19.13;;;11.50;25.00;;;;;;5044975;28;20379;-76
2024/03/07 10:47:57;;;;;;;32.58;19.08;;;11.40;25.80;;;;;;5039868;28;20428;-77
2024/03/07 10:50:55;;;;;;;37.10;19.87;;;11.20;25.80;;;;;;5045511;28;20394;-75
2024/03/07 10:53:36;;;;;;;35.88;19.10;;;11.30;25.30;;;;;;5046184;28;20492;-76
2024/03/07 10:56:14;;;;;;;35.22;18.70;;;11.20;25.50;;;;;;5041844;28;20383;-77
2024/03/07 10:59:07;;;;;;;33.22;19.67;;;11.00;25.40;;;;;;5037885;28;20560;-77
2024/03/07 11:01:39;;;;;;;33.55;18.52;;;10.90;26.90;;;;;;5038059;28;20383;-76
2024/03/07 11:04:05;;;;;;;33.90;18.52;;;10.90;26.10;;;;;;5040448;28;20888;-77
2024/03/07 11:06:34;;;;;;;35.30;18.95;;;10.90;26.60;;;;;;5041438;28;20417;-76
2024/03/07 11:09:01;;;;;;;35.35;19.08;;;10.90;26.20;;;;;;5043782;28;20455;-78
2024/03/07 11:11:28;;;;;;;33.53;18.60;;;10.80;26.90;;;;;;5041318;28;20437;-77
2024/03/07 11:13:54;;;;;;;35.27;19.63;;;10.80;26.90;;;;;;5037729;28;20799;-76
2024/03/07 11:16:22;;;;;;;34.35;18.67;;;10.80;26.70;;;;;;4979574;28;1742244;-76
2024/03/07 11:19:39;;;;;;;40.22;18.17;;;10.90;27.10;;;;;;5037337;28;20472;-78
2024/03/07 11:22:15;;;;;;;37.60;18.60;;;11.30;26.10;;;;;;5021699;28;20391;-78
2024/03/07 11:24:42;;;;;;;33.63;17.73;;;11.30;25.10;;;;;;5042674;28;20463;-77
2024/03/07 11:27:10;;;;;;;33.40;18.92;;;11.20;24.80;;;;;;5040032;28;20470;-76
2024/03/07 11:29:43;;;;;;;35.58;18.85;;;11.20;26.20;;;;;;5041394;28;20391;-76
2024/03/07 11:32:15;;;;;;;35.90;19.20;;;11.40;25.00;;;;;;5042735;28;20821;-77
2024/03/07 11:34:43;;;;;;;35.97;19.13;;;11.50;25.40;;;;;;5041634;28;20413;-75
2024/03/07 11:37:18;;;;;;;31.15;18.38;;;11.70;25.00;;;;;;5040450;28;20387;-76
2024/03/07 11:39:48;;;;;;;36.45;18.70;;;11.80;25.10;;;;;;5044226;28;20384;-77
2024/03/07 11:42:28;;;;;;;32.15;17.55;;;11.80;25.30;;;;;;5043755;28;20390;-77
2024/03/07 11:44:57;;;;;;;34.15;18.25;;;11.80;24.40;;;;;;5037225;28;20933;-76
2024/03/07 11:47:24;;;;;;;35.00;18.80;;;11.60;24.70;;;;;;5033696;28;20457;-76
2024/03/07 11:49:53;;;;;;;36.00;19.17;;;11.50;25.40;;;;;;5034599;28;20426;-75
2024/03/07 11:52:19;;;;;;;37.60;18.98;;;11.60;25.20;;;;;;5034289;28;20478;-77
2024/03/07 11:54:48;;;;;;;35.43;18.67;;;11.90;24.10;;;;;;5033399;28;20379;-78
2024/03/07 11:57:19;;;;;;;34.03;17.33;;;12.00;24.50;;;;;;5034819;28;20394;-75
2024/03/07 11:59:45;;;;;;;40.72;18.60;;;12.20;23.60;;;;;;5039093;28;20414;-77
2024/03/07 12:02:17;;;;;;;33.05;17.67;;;12.20;23.10;;;;;;5034414;28;20394;-78
2024/03/07 12:04:43;;;;;;;33.08;17.63;;;12.30;23.80;;;;;;5038071;28;20382;-77
2024/03/07 12:07:12;;;;;;;34.28;18.52;;;12.60;22.40;;;;;;5038049;28;20407;-77
2024/03/07 12:09:39;;;;;;;35.97;18.50;;;12.60;22.70;;;;;;5037092;28;20391;-76
2024/03/07 12:12:05;;;;;;;29.80;17.40;;;12.70;22.70;;;;;;5040094;28;20383;-77
2024/03/07 12:14:31;;;;;;;28.85;17.33;;;12.70;22.20;;;;;;5041520;28;20415;-77
2024/03/07 12:16:57;;;;;;;31.75;16.65;;;12.90;22.10;;;;;;5046091;28;20465;-77
2024/03/07 12:19:26;;;;;;;28.33;17.52;;;13.00;21.80;;;;;;5041791;28;20415;-77
2024/03/07 12:21:56;;;;;;;35.85;20.23;;;13.30;20.70;;;;;;5046711;28;20418;-75
2024/03/07 12:24:22;;;;;;;33.55;18.15;;;13.10;21.40;;;;;;5043141;28;20380;-77
2024/03/07 12:26:48;;;;;;;35.67;19.07;;;13.00;22.20;;;;;;5039649;28;20410;-77
2024/03/07 12:29:13;;;;;;;34.37;18.83;;;12.90;22.00;;;;;;5042582;28;20706;-77
2024/03/07 12:31:39;;;;;;;33.70;19.77;;;12.60;22.60;;;;;;5040596;28;20386;-75
2024/03/07 12:34:09;;;;;;;42.28;24.02;;;12.50;23.40;;;;;;5047135;28;20383;-77